createdAt,value
2023-01-19T07:59:39.509Z,1308.00
2023-01-19T08:00:39.420Z,1365.00
2023-01-19T08:01:39.522Z,1332.00
2023-01-19T08:02:39.420Z,1368.00
2023-01-19T08:03:39.427Z,1400.00
2023-01-19T08:04:39.565Z,1684.00
2023-01-19T08:05:39.420Z,1497.00
2023-01-19T08:06:39.432Z,1472.00
2023-01-19T08:07:39.499Z,1475.00
2023-01-19T08:08:39.340Z,1486.00
2023-01-19T08:09:39.330Z,1517.00
2023-01-19T08:10:39.336Z,1533.00
2023-01-19T08:11:39.340Z,1577.00
2023-01-19T08:12:39.353Z,1506.00
2023-01-19T08:13:39.431Z,1517.00
2023-01-19T08:14:39.339Z,1530.00
2023-01-19T08:15:39.366Z,1313.00
2023-01-19T08:16:39.340Z,1601.00
2023-01-19T08:17:39.349Z,1472.00
2023-01-19T08:18:39.260Z,1504.00
2023-01-19T08:19:41.543Z,1500.00
2023-01-19T08:20:39.300Z,1506.00
2023-01-19T08:21:39.294Z,1535.00
2023-01-19T08:22:39.266Z,1568.00
2023-01-19T08:23:39.302Z,1763.00
2023-01-19T08:24:39.246Z,1568.00
2023-01-19T08:25:39.259Z,1609.00
2023-01-19T08:26:39.259Z,1655.00
2023-01-19T08:27:39.264Z,1699.00
2023-01-19T08:28:39.280Z,1705.00
2023-01-19T08:29:39.179Z,1700.00
2023-01-19T08:30:39.215Z,1787.00
2023-01-19T08:31:39.334Z,1908.00
2023-01-19T08:32:39.187Z,1964.00
2023-01-19T08:33:39.262Z,1887.00
2023-01-19T08:34:39.190Z,1914.00
2023-01-19T08:35:39.283Z,2104.00
2023-01-19T08:36:39.241Z,2088.00
2023-01-19T08:37:39.204Z,2027.00
2023-01-19T08:38:39.160Z,2329.00
2023-01-19T08:39:39.291Z,2327.00
2023-01-19T08:40:39.170Z,2302.00
2023-01-19T08:41:39.186Z,2147.00
2023-01-19T08:42:39.402Z,2568.00
2023-01-19T08:43:39.249Z,2149.00
2023-01-19T08:44:46.692Z,2317.00
2023-01-19T08:45:40.091Z,1617.00
2023-01-19T08:46:39.521Z,2508.00
2023-01-19T08:47:39.222Z,1785.00
2023-01-19T08:48:40.003Z,1360.00
